Aérodrome :
LOGIN :

S'inscrire | Disclaimer

   EN    FR    IT 

 










Légende :    VFR   VFR Marginal   IFR   IFR Intensif   IFR Très Intensif
Visi : 
Plafond : 
>= 8 km
>= 3000ft
5 à 8 km
1000 à 3000 ft
1500m à 5 km
500 à 1000 ft
800 à 1500m
200 à 500 ft
< 800m
< 200 ft
Symboles :   Orages  Brouillard  Fortes neiges  Fortes précipitations  Vent > 20 kt
SIGMETs :   Divers  Orages  Givrage  Turbulence  Onde Orograph.  Cendres Volcan.







- Altitude de l'aérodrome : 359 ft
- Code IATA : BVA
- Voir les cartes d'approche


LFOB - Beauvais

DERNIER METAR :
  • 292100Z AUTO 08008KT CAVOK 07/02 Q1011 NOSIG

METARs EXPIRÉS :
  • 292030Z AUTO 08008KT CAVOK 07/03 Q1012 NOSIG
  • 292000Z AUTO 08009KT CAVOK 08/03 Q1012 NOSIG
  • 291930Z AUTO 09007KT CAVOK 08/03 Q1012 NOSIG
  • 291900Z AUTO 09007KT CAVOK 10/03 Q1012 NOSIG
  • 291830Z AUTO 10007KT CAVOK 12/03 Q1012 NOSIG

TAF TAF LFOB
Valide du 29 à 18h jusqu'au 30 à 18h UTC


291700Z 2918/3018 12010KT CAVOK
BECMG 3010/3012 16015G25KT
TEMPO 3013/3016 VRB20G30KT 3000 SHRA BKN050CB
ATIS : +33 3 44 11 49 28
Pas de NOTAMs connus pour ce terrain.



MET'MAP, la Météo Aéronautique d'un coup d'oeil ! - Copyright ORBIFLY Décembre 2007 - Disclaimer

ORBIFLY MET'MAP TEAM :

Programmation & Développement : Alexandra Zaïnal
Conception & Développement : Baudouin d'Aumeries
Co-Programmation & Développement : Marc-Olivier Méhu
Soutien technique & logistique : Manuel Goepfert

Contact : metmap@orbifly.com




SOURCES & CREDITS :

   NOAA